createdAt,value
2023-04-25T00:03:23.233Z,24.4
2023-04-25T00:13:23.205Z,22.6
2023-04-25T00:23:25.284Z,24.5
2023-04-25T00:33:24.854Z,22.4
2023-04-25T00:43:24.464Z,22.3
2023-04-25T00:53:25.598Z,22.3
2023-04-25T01:03:25.724Z,22.5
2023-04-25T01:13:26.957Z,24.4
2023-04-25T01:23:27.410Z,22.3
2023-04-25T01:33:27.790Z,22.2
2023-04-25T01:43:28.475Z,22.1
2023-04-25T01:53:28.666Z,22.4
2023-04-25T02:03:28.261Z,22.3
2023-04-25T02:13:28.381Z,21.9
2023-04-25T02:23:28.549Z,21.8
2023-04-25T02:33:29.165Z,21.8
2023-04-25T02:43:28.997Z,22
2023-04-25T02:53:28.814Z,21.8
2023-04-25T03:03:09.218Z,23.8
2023-04-25T03:13:08.356Z,21.5
2023-04-25T03:23:09.453Z,23.6
2023-04-25T03:33:09.446Z,23.8
2023-04-25T03:43:08.247Z,21.4
2023-04-25T03:53:10.194Z,24.6
2023-04-25T04:03:19.663Z,26.7
2023-04-25T04:13:26.654Z,21.9
2023-04-25T04:23:29.260Z,24.4
2023-04-25T04:33:31.130Z,23.4
2023-04-25T04:43:33.131Z,21.9
2023-04-25T04:53:34.320Z,21.7
2023-04-25T05:03:34.975Z,23.6
2023-04-25T05:13:34.252Z,23.8
2023-04-25T05:23:34.553Z,21.9
2023-04-25T05:33:35.852Z,21.8
2023-04-25T05:43:36.724Z,21.7
2023-04-25T05:53:36.955Z,24
2023-04-25T06:03:37.196Z,21.6
2023-04-25T06:13:39.700Z,24.4
2023-04-25T06:23:44.381Z,24.1
2023-04-25T06:33:58.113Z,26.3
2023-04-25T06:44:09.129Z,24.9
2023-04-25T06:54:15.233Z,27.8
2023-04-25T07:04:20.918Z,25
2023-04-25T07:14:22.484Z,23.5
2023-04-25T07:24:31.527Z,26.1
2023-04-25T07:34:38.482Z,26.1
2023-04-25T07:44:46.751Z,26.1
2023-04-25T07:54:53.263Z,25.8
2023-04-25T08:05:03.757Z,27.8
2023-04-25T08:15:17.916Z,23.1
2023-04-25T08:25:30.471Z,27.2
2023-04-25T08:35:35.740Z,25.9
2023-04-25T08:45:41.499Z,28.2
2023-04-25T08:55:59.068Z,28.7
2023-04-25T09:03:15.742Z,28.8
2023-04-25T09:13:31.436Z,28.8
2023-04-25T09:23:42.093Z,26.4
2023-04-25T09:33:55.266Z,26.1
2023-04-25T09:44:04.953Z,28.8
2023-04-25T09:54:16.267Z,23.6
2023-04-25T10:04:21.981Z,26.4
2023-04-25T10:14:29.115Z,27.6
2023-04-25T10:24:37.995Z,28.8
2023-04-25T10:34:52.251Z,28.3
2023-04-25T10:45:05.645Z,29.4
2023-04-25T10:55:14.973Z,27.2
2023-04-25T11:05:26.678Z,29.2
2023-04-25T11:15:34.541Z,27.1
2023-04-25T11:25:39.281Z,25.2
2023-04-25T11:35:39.325Z,23.9
2023-04-25T11:45:38.841Z,24.3
2023-04-25T11:55:39.950Z,26.3
2023-04-25T12:05:45.350Z,26.3
2023-04-25T12:15:51.808Z,27.9
2023-04-25T12:25:57.874Z,27.3
2023-04-25T12:36:06.347Z,28.1
2023-04-25T12:46:11.401Z,28
2023-04-25T12:56:15.080Z,25.1
2023-04-25T13:06:16.863Z,26.1
2023-04-25T13:16:18.116Z,24
2023-04-25T13:26:18.420Z,25.6
2023-04-25T13:36:19.107Z,23.7
2023-04-25T13:56:19.108Z,23.5
2023-04-25T14:06:25.961Z,28.6
2023-04-25T14:16:34.452Z,25.5
2023-04-25T14:26:40.762Z,25.4
2023-04-25T14:36:47.560Z,25.4
2023-04-25T14:46:52.509Z,24.3
2023-04-25T14:56:56.547Z,24.1
2023-04-25T15:03:09.014Z,23.4
2023-04-25T15:13:10.128Z,23.7
2023-04-25T15:23:11.991Z,23.6
2023-04-25T15:33:12.973Z,25.3
2023-04-25T15:43:14.044Z,23.6
2023-04-25T15:53:14.176Z,23.2
2023-04-25T16:03:15.716Z,23.3
2023-04-25T16:13:16.528Z,22.9
2023-04-25T16:23:17.854Z,23
2023-04-25T16:33:19.426Z,24.8
2023-04-25T16:43:21.186Z,24.8
2023-04-25T16:53:23.012Z,22.9
2023-04-25T17:03:24.722Z,24.7
2023-04-25T17:13:30.656Z,23
2023-04-25T17:23:26.008Z,23.1
2023-04-25T17:33:25.665Z,22.9
2023-04-25T17:43:25.758Z,22.9
2023-04-25T17:53:26.234Z,24.3
2023-04-25T18:03:26.917Z,22.8
2023-04-25T18:13:26.464Z,22.6
2023-04-25T18:23:26.219Z,22.5
2023-04-25T18:33:26.050Z,23.8
2023-04-25T18:43:26.161Z,22.3
2023-04-25T18:53:25.685Z,22.5
2023-04-25T19:03:25.653Z,22.3
2023-04-25T19:13:25.263Z,22.4
2023-04-25T19:23:25.478Z,22.4
2023-04-25T19:33:26.048Z,22.4
2023-04-25T19:43:26.295Z,22.2
2023-04-25T19:53:25.622Z,24.1
2023-04-25T20:03:26.743Z,24.1
2023-04-25T20:13:27.722Z,24.1
2023-04-25T20:23:27.627Z,22.3
2023-04-25T20:33:27.078Z,22
2023-04-25T20:43:27.022Z,22.2
2023-04-25T20:53:27.439Z,24
2023-04-25T21:03:07.076Z,22.1
2023-04-25T21:13:06.622Z,22.3
2023-04-25T21:23:06.328Z,21.8
2023-04-25T21:33:06.391Z,22.1
2023-04-25T21:43:07.062Z,22.1
2023-04-25T21:53:06.985Z,22.2
2023-04-25T22:03:07.737Z,22
2023-04-25T22:13:09.394Z,22
2023-04-25T22:23:10.101Z,22
2023-04-25T22:33:11.442Z,21.8
2023-04-25T22:43:12.198Z,21.8
2023-04-25T22:53:13.859Z,21.9
2023-04-25T23:03:14.190Z,21.9
2023-04-25T23:13:15.421Z,23.8
2023-04-25T23:23:15.070Z,23.8
2023-04-25T23:33:17.535Z,22
2023-04-25T23:43:18.337Z,23.7
2023-04-25T23:53:19.088Z,23.8
